createdAt,value
2023-09-30T05:47:07.380Z,11.85
2023-09-30T05:48:07.426Z,11.82
2023-09-30T05:49:07.364Z,11.84
2023-09-30T05:50:07.261Z,11.88
2023-09-30T05:51:07.233Z,11.88
2023-09-30T05:52:07.220Z,11.98
2023-09-30T05:53:07.143Z,12.05
2023-09-30T05:54:07.098Z,11.97
2023-09-30T05:55:07.066Z,12.05
2023-09-30T05:56:07.023Z,12.12
2023-09-30T05:57:06.979Z,12.03
2023-09-30T05:58:06.952Z,12.15
2023-09-30T05:59:06.896Z,12.15
2023-09-30T06:00:06.862Z,12.13
2023-09-30T06:01:06.819Z,12.15
2023-09-30T06:02:06.814Z,12.22
2023-09-30T06:03:06.768Z,12.18
2023-09-30T06:04:06.754Z,12.29
2023-09-30T06:05:06.691Z,12.33
2023-09-30T06:06:06.614Z,12.29
2023-09-30T06:07:06.577Z,12.43
2023-09-30T06:08:06.526Z,12.48
2023-09-30T06:09:06.492Z,12.37
2023-09-30T06:10:06.469Z,12.44
2023-09-30T06:11:06.428Z,12.41
2023-09-30T06:12:06.369Z,12.59
2023-09-30T06:13:06.334Z,12.54
2023-09-30T06:14:06.289Z,12.62
2023-09-30T06:15:06.251Z,12.67
2023-09-30T06:16:08.527Z,12.73
2023-09-30T06:17:06.185Z,12.76
2023-09-30T06:18:06.198Z,12.71
2023-09-30T06:19:06.093Z,12.76
2023-09-30T06:20:06.048Z,12.91
2023-09-30T06:21:06.024Z,12.87
2023-09-30T06:22:05.992Z,12.88
2023-09-30T06:23:05.937Z,12.92
2023-09-30T06:24:05.888Z,12.99
2023-09-30T06:25:05.887Z,12.91
2023-09-30T06:26:05.812Z,13.03
2023-09-30T06:27:05.779Z,13.04
2023-09-30T06:28:05.750Z,13.10
2023-09-30T06:29:05.692Z,13.12
2023-09-30T06:30:05.684Z,13.28
2023-09-30T06:31:05.654Z,13.31
2023-09-30T06:32:05.588Z,13.22
2023-09-30T06:33:05.580Z,13.35
2023-09-30T06:34:05.510Z,13.31
2023-09-30T06:35:05.461Z,13.25
2023-09-30T06:36:05.437Z,13.43
2023-09-30T06:37:05.374Z,13.48
2023-09-30T06:38:05.339Z,13.72
2023-09-30T06:39:05.296Z,13.75
2023-09-30T06:40:05.290Z,13.88
2023-09-30T06:41:05.224Z,13.87
2023-09-30T06:42:05.226Z,13.93
2023-09-30T06:43:05.219Z,14.04
2023-09-30T06:44:05.147Z,14.04
2023-09-30T06:45:05.081Z,14.21
2023-09-30T06:46:05.185Z,14.19
2023-09-30T06:47:05.002Z,14.20
2023-09-30T06:48:05.002Z,14.44
2023-09-30T06:49:04.924Z,14.61
2023-09-30T06:50:04.876Z,14.60
2023-09-30T06:51:04.840Z,14.64
2023-09-30T06:52:04.833Z,14.63
2023-09-30T06:53:04.806Z,14.74
2023-09-30T06:54:04.726Z,14.91
2023-09-30T06:55:04.680Z,15.03
2023-09-30T06:56:04.644Z,15.07
2023-09-30T06:57:04.620Z,15.20
2023-09-30T06:58:04.586Z,15.31
2023-09-30T06:59:04.530Z,15.38
2023-09-30T07:00:04.509Z,15.55
2023-09-30T07:01:04.464Z,15.67
2023-09-30T07:02:04.429Z,15.77
2023-09-30T07:03:04.411Z,15.88
2023-09-30T07:04:04.480Z,15.84
2023-09-30T07:05:04.316Z,16.01
2023-09-30T07:06:04.298Z,16.04
2023-09-30T07:07:04.241Z,15.92
2023-09-30T07:08:04.206Z,15.99
2023-09-30T07:09:04.188Z,16.06
2023-09-30T07:10:04.141Z,15.93
2023-09-30T07:11:04.089Z,16.16
2023-09-30T07:12:04.055Z,16.33
2023-09-30T07:13:04.018Z,16.40
2023-09-30T07:14:03.979Z,16.55
2023-09-30T07:15:03.999Z,16.59
2023-09-30T07:16:04.024Z,16.40
2023-09-30T07:17:03.891Z,16.41
2023-09-30T07:18:03.885Z,16.36
2023-09-30T07:19:03.851Z,16.45
2023-09-30T07:20:03.883Z,16.36
2023-09-30T07:21:03.743Z,16.14
2023-09-30T07:22:04.686Z,16.25
2023-09-30T07:23:18.133Z,16.37
2023-09-30T07:24:03.640Z,16.29
2023-09-30T07:25:03.660Z,16.10
2023-09-30T07:26:03.562Z,16.04
2023-09-30T07:27:06.461Z,16.03
2023-09-30T07:28:03.585Z,16.14
2023-09-30T07:29:04.525Z,16.11
2023-09-30T07:30:03.513Z,16.10
2023-09-30T07:31:10.131Z,15.98
2023-09-30T07:32:03.399Z,16.10
2023-09-30T07:33:03.329Z,16.33
2023-09-30T07:34:03.432Z,16.50
2023-09-30T07:35:03.293Z,16.45
2023-09-30T07:36:03.249Z,16.54
2023-09-30T07:37:03.156Z,16.60
2023-09-30T07:38:03.211Z,16.81
2023-09-30T07:39:06.908Z,17.17
2023-09-30T07:40:03.081Z,17.43
2023-09-30T07:41:03.105Z,17.66
2023-09-30T07:42:02.993Z,17.83
2023-09-30T07:43:02.987Z,18.11
2023-09-30T07:44:03.989Z,18.16
2023-09-30T07:45:08.735Z,18.21
2023-09-30T07:46:02.951Z,18.26
2023-09-30T07:47:03.589Z,18.20
2023-09-30T07:48:02.814Z,18.25
2023-09-30T07:49:02.809Z,18.21
2023-09-30T07:50:02.716Z,18.26
2023-09-30T07:51:02.665Z,18.38
2023-09-30T07:52:02.653Z,18.47
2023-09-30T07:53:02.603Z,18.53
2023-09-30T07:54:19.064Z,18.76
2023-09-30T07:55:02.571Z,18.72
2023-09-30T07:56:02.526Z,18.35
2023-09-30T07:57:02.465Z,18.28
2023-09-30T07:58:02.470Z,17.98
2023-09-30T07:59:02.393Z,18.14
2023-09-30T08:00:02.358Z,18.16
2023-09-30T08:01:02.382Z,18.34
2023-09-30T08:02:02.956Z,18.26
2023-09-30T08:03:02.297Z,18.04
2023-09-30T08:04:02.296Z,18.04
2023-09-30T08:05:02.289Z,17.92
2023-09-30T08:06:02.151Z,17.83
2023-09-30T08:07:02.316Z,17.58
2023-09-30T08:08:02.088Z,17.53
2023-09-30T08:09:02.069Z,17.87
2023-09-30T08:10:02.028Z,17.99
2023-09-30T08:11:02.000Z,18.36
2023-09-30T08:12:01.949Z,18.35
2023-09-30T08:13:01.959Z,18.53
2023-09-30T08:14:09.512Z,18.62
2023-09-30T08:15:01.894Z,18.57
2023-09-30T08:16:01.825Z,18.42
2023-09-30T08:17:01.825Z,18.54
2023-09-30T08:18:01.778Z,18.62
2023-09-30T08:19:01.836Z,18.89
2023-09-30T08:20:01.732Z,19.01
2023-09-30T08:21:01.652Z,19.05
2023-09-30T08:22:01.638Z,18.99
2023-09-30T08:23:01.582Z,19.24
2023-09-30T08:24:01.538Z,19.39
2023-09-30T08:25:01.641Z,19.16
2023-09-30T08:26:01.480Z,19.17
2023-09-30T08:27:01.441Z,19.27
2023-09-30T08:28:01.456Z,19.17
2023-09-30T08:29:01.369Z,19.12
2023-09-30T08:30:01.345Z,19.30
2023-09-30T08:31:01.410Z,19.45
2023-09-30T08:32:01.272Z,19.47
2023-09-30T08:33:01.270Z,19.55
2023-09-30T08:34:01.269Z,19.58
2023-09-30T08:35:01.169Z,19.62
2023-09-30T08:36:01.135Z,19.78
2023-09-30T08:37:01.147Z,19.92
2023-09-30T08:38:01.083Z,20.19
2023-09-30T08:39:01.039Z,20.46
2023-09-30T08:40:01.110Z,20.78
2023-09-30T08:41:00.968Z,20.85
2023-09-30T08:42:00.935Z,20.90
2023-09-30T08:43:00.984Z,20.93
2023-09-30T08:44:00.872Z,20.60
2023-09-30T08:45:00.999Z,20.33
2023-09-30T08:46:00.900Z,20.37
2023-09-30T08:47:00.830Z,20.56
2023-09-30T08:48:00.800Z,20.94
2023-09-30T08:49:01.043Z,20.98
2023-09-30T08:50:00.668Z,21.36
2023-09-30T08:51:00.666Z,21.56
2023-09-30T08:52:00.660Z,21.74
2023-09-30T08:53:00.588Z,22.01
2023-09-30T08:56:40.465Z,21.74
2023-09-30T08:57:40.601Z,21.86
2023-09-30T08:58:40.390Z,21.56
2023-09-30T08:59:49.477Z,21.27
2023-09-30T09:00:40.333Z,21.49
2023-09-30T09:01:40.325Z,21.56
2023-09-30T09:02:40.276Z,21.81
2023-09-30T09:03:40.334Z,21.89
2023-09-30T09:04:40.330Z,22.06
2023-09-30T09:05:40.148Z,22.08
2023-09-30T09:06:40.176Z,21.98
2023-09-30T09:07:40.101Z,21.98
2023-09-30T09:08:40.045Z,22.01
2023-09-30T09:09:40.073Z,21.61
2023-09-30T09:10:39.985Z,21.24
2023-09-30T09:11:39.957Z,20.96
2023-09-30T09:12:40.178Z,20.63
2023-09-30T09:13:39.915Z,20.37
2023-09-30T09:14:39.876Z,20.78
2023-09-30T09:15:39.986Z,20.88
2023-09-30T09:16:50.113Z,20.93
2023-09-30T09:17:49.585Z,20.82
2023-09-30T09:18:49.865Z,20.82
2023-09-30T09:19:39.700Z,20.63
2023-09-30T09:20:39.663Z,20.25
2023-09-30T09:21:39.641Z,20.22
2023-09-30T09:22:48.633Z,20.51
2023-09-30T09:23:39.565Z,20.73
2023-09-30T09:24:39.559Z,20.60
2023-09-30T09:25:39.492Z,20.87
2023-09-30T09:26:39.477Z,21.15
2023-09-30T09:27:39.451Z,21.43
2023-09-30T09:28:39.391Z,21.83
2023-09-30T09:29:39.349Z,21.98
2023-09-30T09:30:39.440Z,22.09
2023-09-30T09:31:39.335Z,21.66
2023-09-30T09:32:39.319Z,21.74
2023-09-30T09:33:39.268Z,21.46
2023-09-30T09:34:39.190Z,21.30
2023-09-30T09:35:39.164Z,21.31
2023-09-30T09:36:39.184Z,21.26
2023-09-30T09:37:40.633Z,21.51
2023-09-30T09:38:39.061Z,21.49
2023-09-30T09:39:39.081Z,21.63
2023-09-30T09:40:39.011Z,22.11
2023-09-30T09:41:38.968Z,22.39
2023-09-30T09:42:38.967Z,22.84
2023-09-30T09:43:38.923Z,23.25
2023-09-30T09:44:38.865Z,23.56
2023-09-30T09:45:39.238Z,23.69
2023-09-30T09:46:38.828Z,23.94
2023-09-30T09:47:38.833Z,23.84
2023-09-30T09:48:38.801Z,23.92
2023-09-30T09:49:38.715Z,23.75
2023-09-30T09:50:38.690Z,23.63
2023-09-30T09:51:38.738Z,23.38
2023-09-30T09:52:38.677Z,22.91
2023-09-30T09:53:40.347Z,22.56
2023-09-30T09:54:38.578Z,21.85
2023-09-30T09:55:38.515Z,21.49
2023-09-30T09:56:38.501Z,21.21
2023-09-30T09:57:38.486Z,21.43
2023-09-30T09:58:38.412Z,21.77
2023-09-30T09:59:38.383Z,22.11
2023-09-30T10:00:38.413Z,22.60
2023-09-30T10:01:38.398Z,22.67
2023-09-30T10:02:38.382Z,22.89
2023-09-30T10:03:38.344Z,23.31
2023-09-30T10:04:38.221Z,23.49
2023-09-30T10:05:38.193Z,23.49
2023-09-30T10:06:38.206Z,22.82
2023-09-30T10:07:38.136Z,22.57
2023-09-30T10:08:38.106Z,22.33
2023-09-30T10:09:38.117Z,22.11
2023-09-30T10:10:38.055Z,21.67
2023-09-30T10:11:38.006Z,21.26
2023-09-30T10:12:38.026Z,20.78
2023-09-30T10:13:37.939Z,20.60
2023-09-30T10:14:37.901Z,20.51
2023-09-30T10:15:37.910Z,20.73
2023-09-30T10:16:37.936Z,20.88
2023-09-30T10:17:37.834Z,20.56
2023-09-30T10:18:37.816Z,20.53
2023-09-30T10:19:37.749Z,20.58
2023-09-30T10:20:37.714Z,20.72
2023-09-30T10:21:37.725Z,21.19
2023-09-30T10:22:37.669Z,21.05
2023-09-30T10:23:37.617Z,20.51
2023-09-30T10:24:37.595Z,19.97
2023-09-30T10:25:37.561Z,19.64
2023-09-30T10:26:37.525Z,19.61
2023-09-30T10:27:37.519Z,19.64
2023-09-30T10:28:37.510Z,19.97
2023-09-30T10:29:37.420Z,20.41
2023-09-30T10:30:37.514Z,20.71
2023-09-30T10:31:37.392Z,21.03
2023-09-30T10:32:37.324Z,21.26
2023-09-30T10:33:37.340Z,21.21
2023-09-30T10:34:37.251Z,21.37
2023-09-30T10:35:37.229Z,21.79
2023-09-30T10:36:37.261Z,22.04
2023-09-30T10:37:37.157Z,22.35
2023-09-30T10:38:37.129Z,22.27
2023-09-30T10:39:37.135Z,22.36
2023-09-30T10:40:37.055Z,22.33
2023-09-30T10:41:37.026Z,22.33
2023-09-30T10:42:37.020Z,22.59
2023-09-30T10:43:36.984Z,22.72
2023-09-30T10:44:36.957Z,22.93
2023-09-30T10:45:36.916Z,23.12
2023-09-30T10:46:36.912Z,23.16
2023-09-30T10:47:36.931Z,23.22
2023-09-30T10:48:36.844Z,23.32
2023-09-30T10:49:36.776Z,23.42
2023-09-30T10:50:36.733Z,23.44
2023-09-30T10:51:36.741Z,23.82
2023-09-30T10:52:36.683Z,24.24
2023-09-30T10:53:36.636Z,24.39
2023-09-30T10:54:36.613Z,24.06
2023-09-30T10:55:36.572Z,23.94
2023-09-30T10:56:36.559Z,24.06
2023-09-30T10:57:36.532Z,23.96
2023-09-30T10:58:36.509Z,24.16
2023-09-30T10:59:36.911Z,24.16
2023-09-30T11:00:36.523Z,24.04
2023-09-30T11:01:36.672Z,23.59
2023-09-30T11:02:36.617Z,23.18
2023-09-30T11:03:36.528Z,22.35
2023-09-30T11:04:36.402Z,22.09
2023-09-30T11:05:52.606Z,21.94
2023-09-30T11:06:36.294Z,22.12
2023-09-30T11:07:36.217Z,22.45
2023-09-30T11:08:36.164Z,22.56
2023-09-30T11:09:36.149Z,22.54
2023-09-30T11:10:36.098Z,22.36
2023-09-30T11:11:36.062Z,22.61
2023-09-30T11:12:36.065Z,22.39
2023-09-30T11:13:36.019Z,22.61
2023-09-30T11:14:35.989Z,22.27
2023-09-30T11:15:35.964Z,22.09
2023-09-30T11:16:35.967Z,22.11
2023-09-30T11:17:35.898Z,22.52
2023-09-30T11:18:35.881Z,22.69
2023-09-30T11:19:35.821Z,22.70
2023-09-30T11:20:35.779Z,22.89
2023-09-30T11:21:35.765Z,23.03
2023-09-30T11:22:35.711Z,23.50
2023-09-30T11:23:35.678Z,23.45
2023-09-30T11:24:35.709Z,23.39
2023-09-30T11:25:35.639Z,23.39
2023-09-30T11:26:38.412Z,23.25
2023-09-30T11:27:35.572Z,23.50
2023-09-30T11:28:35.521Z,23.82
2023-09-30T11:29:35.482Z,23.99
2023-09-30T11:30:35.634Z,24.39
2023-09-30T11:31:35.670Z,24.68
2023-09-30T11:32:35.541Z,24.86
2023-09-30T11:33:35.603Z,24.94
2023-09-30T11:34:35.346Z,24.70
2023-09-30T11:35:35.296Z,24.42
2023-09-30T11:36:35.317Z,24.48
2023-09-30T11:37:35.321Z,24.46
2023-09-30T11:38:35.230Z,24.48
2023-09-30T11:39:35.221Z,24.34
2023-09-30T11:40:35.140Z,24.37
2023-09-30T11:41:35.103Z,24.44
2023-09-30T11:42:35.125Z,24.67
2023-09-30T11:43:35.053Z,24.80
2023-09-30T11:44:35.012Z,24.51
2023-09-30T11:45:34.998Z,24.05
2023-09-30T11:46:35.079Z,23.78
2023-09-30T11:47:34.933Z,23.69
2023-09-30T11:48:34.931Z,23.45
2023-09-30T11:49:34.853Z,23.45
2023-09-30T11:50:34.828Z,23.15
2023-09-30T11:51:34.804Z,22.96
2023-09-30T11:52:34.771Z,22.79
2023-09-30T11:53:34.737Z,22.85
2023-09-30T11:54:34.828Z,23.01
2023-09-30T11:55:34.670Z,23.14
2023-09-30T11:56:34.641Z,23.26
2023-09-30T11:57:34.637Z,23.16
2023-09-30T11:58:34.576Z,23.14
2023-09-30T11:59:34.571Z,23.47
2023-09-30T12:00:34.571Z,23.00
2023-09-30T12:01:34.528Z,22.54
2023-09-30T12:02:34.510Z,22.11
2023-09-30T12:03:34.503Z,21.93
2023-09-30T12:04:34.457Z,22.27
2023-09-30T12:05:34.357Z,22.56
2023-09-30T12:06:34.365Z,22.84
2023-09-30T12:07:34.292Z,23.22
2023-09-30T12:08:34.258Z,23.19
2023-09-30T12:09:34.246Z,23.49
2023-09-30T12:10:34.196Z,23.52
2023-09-30T12:11:34.193Z,23.26
2023-09-30T12:12:34.164Z,23.38
2023-09-30T12:13:34.102Z,23.47
2023-09-30T12:14:34.082Z,23.50
2023-09-30T12:15:34.064Z,23.62
2023-09-30T12:16:34.045Z,23.29
2023-09-30T12:17:33.999Z,23.38
2023-09-30T12:18:33.973Z,23.29
2023-09-30T12:19:33.949Z,23.09
2023-09-30T12:20:33.886Z,23.11
2023-09-30T12:21:33.851Z,23.01
2023-09-30T12:22:33.816Z,22.94
2023-09-30T12:23:33.778Z,22.93
2023-09-30T12:24:33.794Z,22.70
2023-09-30T12:25:33.715Z,22.51
2023-09-30T12:26:33.706Z,22.05
2023-09-30T12:27:33.695Z,21.82
2023-09-30T12:28:33.623Z,21.81
2023-09-30T12:29:33.634Z,21.51
2023-09-30T12:30:33.765Z,21.45
2023-09-30T12:31:45.882Z,21.36
2023-09-30T12:32:33.556Z,21.30
2023-09-30T12:33:33.498Z,21.45
2023-09-30T12:34:33.433Z,21.55
2023-09-30T12:35:33.423Z,21.64
2023-09-30T12:36:33.387Z,21.81
2023-09-30T12:37:33.331Z,21.81
2023-09-30T12:38:33.310Z,21.82
2023-09-30T12:39:33.322Z,21.96
2023-09-30T12:40:33.241Z,21.94
2023-09-30T12:41:33.214Z,21.94
2023-09-30T12:42:33.184Z,22.04
2023-09-30T12:43:33.134Z,21.96
2023-09-30T12:44:33.103Z,21.86
2023-09-30T12:45:33.105Z,21.98
2023-09-30T12:46:33.070Z,22.05
2023-09-30T12:47:33.088Z,22.02
2023-09-30T12:48:32.991Z,22.01
2023-09-30T12:49:32.945Z,22.01
2023-09-30T12:50:32.901Z,21.79
2023-09-30T12:51:32.881Z,21.73
2023-09-30T12:52:32.850Z,21.99
2023-09-30T12:53:32.815Z,21.89
2023-09-30T12:54:32.834Z,21.91
2023-09-30T12:55:32.728Z,21.74
2023-09-30T12:56:32.710Z,21.70
2023-09-30T12:57:32.744Z,21.67
2023-09-30T12:58:32.637Z,21.52
2023-09-30T12:59:32.615Z,21.51
2023-09-30T13:00:32.593Z,21.64
2023-09-30T13:01:32.600Z,21.64
2023-09-30T13:02:32.548Z,21.77
2023-09-30T13:03:32.498Z,21.77
2023-09-30T13:04:32.447Z,21.73
2023-09-30T13:05:32.396Z,21.52
2023-09-30T13:06:32.426Z,21.42
2023-09-30T13:07:32.333Z,21.30
2023-09-30T13:08:32.295Z,20.97
2023-09-30T13:09:32.294Z,21.01
2023-09-30T13:10:32.238Z,20.96
2023-09-30T13:11:33.618Z,20.91
2023-09-30T13:12:32.184Z,20.82
2023-09-30T13:13:32.121Z,20.81
2023-09-30T13:14:32.097Z,20.79
2023-09-30T13:15:32.113Z,20.73
2023-09-30T13:16:32.095Z,20.60
2023-09-30T13:17:32.021Z,20.46
2023-09-30T13:18:31.991Z,20.38
2023-09-30T13:19:31.925Z,20.25
2023-09-30T13:20:31.888Z,20.10
2023-09-30T13:21:31.867Z,20.01
2023-09-30T13:22:31.829Z,19.80
2023-09-30T13:23:31.782Z,19.87
2023-09-30T13:24:31.764Z,19.83
2023-09-30T13:25:31.710Z,19.82
2023-09-30T13:26:31.675Z,19.85
2023-09-30T13:27:31.676Z,19.87
2023-09-30T13:28:31.638Z,19.94
2023-09-30T13:29:31.583Z,19.98
2023-09-30T13:30:31.579Z,20.07
2023-09-30T13:31:31.554Z,20.13
2023-09-30T13:32:31.483Z,20.07
2023-09-30T13:33:31.500Z,20.07
2023-09-30T13:34:31.416Z,20.16
2023-09-30T13:35:31.391Z,20.00
2023-09-30T13:36:31.360Z,20.07
2023-09-30T13:37:31.288Z,20.07
2023-09-30T13:38:31.272Z,20.07
2023-09-30T13:39:31.278Z,20.08
2023-09-30T13:40:31.184Z,20.10
2023-09-30T13:41:31.160Z,20.07
2023-09-30T13:42:31.158Z,20.19
2023-09-30T13:43:31.076Z,20.19
2023-09-30T13:44:31.066Z,20.23
2023-09-30T13:45:31.096Z,20.30
2023-09-30T13:46:31.106Z,20.34
2023-09-30T13:47:30.955Z,20.27
2023-09-30T13:48:30.937Z,20.30
2023-09-30T13:49:30.862Z,20.33
2023-09-30T13:50:30.866Z,20.20
2023-09-30T13:51:30.850Z,20.19
2023-09-30T13:52:31.939Z,20.19
2023-09-30T13:53:30.723Z,20.13
2023-09-30T13:54:30.697Z,20.27
2023-09-30T13:56:38.740Z,20.25
2023-09-30T13:57:33.816Z,20.30
2023-09-30T13:58:30.610Z,20.27
2023-09-30T13:59:30.514Z,20.30
2023-09-30T14:00:32.791Z,20.25
2023-09-30T14:01:32.749Z,20.30
2023-09-30T14:02:30.455Z,20.42
2023-09-30T14:03:30.547Z,20.34
2023-09-30T14:04:30.394Z,20.48
2023-09-30T14:05:30.311Z,20.51
2023-09-30T14:06:30.301Z,20.54
2023-09-30T14:07:30.229Z,20.58
2023-09-30T14:08:30.220Z,20.69
2023-09-30T14:09:36.110Z,20.64
2023-09-30T14:10:30.153Z,20.61
2023-09-30T14:11:30.088Z,20.61
2023-09-30T14:12:30.098Z,20.69
2023-09-30T14:13:30.027Z,20.71
2023-09-30T14:14:30.006Z,20.75
2023-09-30T14:15:29.990Z,20.76
2023-09-30T14:16:30.068Z,20.75
2023-09-30T14:17:30.484Z,20.82
2023-09-30T14:18:29.872Z,20.61
2023-09-30T14:19:29.841Z,20.58
2023-09-30T14:20:29.783Z,20.60
2023-09-30T14:21:29.784Z,20.61
2023-09-30T14:22:29.712Z,20.53
2023-09-30T14:23:29.685Z,20.54
2023-09-30T14:24:29.666Z,20.53
2023-09-30T14:25:29.645Z,20.53
2023-09-30T14:26:29.595Z,20.40
2023-09-30T14:27:29.656Z,20.51
2023-09-30T14:28:29.516Z,20.44
2023-09-30T14:29:29.459Z,20.41
2023-09-30T14:30:29.457Z,20.34
2023-09-30T14:31:29.440Z,20.34
2023-09-30T14:32:29.448Z,20.25
2023-09-30T14:33:29.356Z,20.26
2023-09-30T14:34:29.324Z,20.27
2023-09-30T14:35:29.247Z,20.23
2023-09-30T14:36:29.257Z,20.34
2023-09-30T14:37:40.752Z,20.41
2023-09-30T14:38:29.143Z,20.34
2023-09-30T14:39:29.146Z,20.35
2023-09-30T14:40:29.091Z,20.41
2023-09-30T14:41:29.038Z,20.27
2023-09-30T14:48:20.600Z,20.17
2023-09-30T14:49:38.168Z,20.23
2023-09-30T14:51:47.211Z,20.08
2023-09-30T14:55:52.129Z,19.94
2023-09-30T15:19:54.270Z,19.61
2023-09-30T15:41:57.762Z,19.10
2023-09-30T15:49:32.256Z,18.91
2023-09-30T15:50:31.643Z,18.96
2023-09-30T15:51:31.705Z,18.84
2023-09-30T15:52:31.523Z,18.89
2023-09-30T15:53:31.468Z,18.90
2023-09-30T15:55:14.919Z,18.84
2023-09-30T15:55:31.376Z,18.72
2023-09-30T15:56:36.152Z,18.72
2023-09-30T15:57:31.355Z,18.65
2023-09-30T15:59:53.819Z,18.57
2023-09-30T16:03:38.818Z,18.46
2023-09-30T16:10:05.686Z,18.34
2023-09-30T16:10:41.231Z,18.13
2023-09-30T16:11:41.197Z,18.13
2023-09-30T16:13:03.313Z,18.21
2023-09-30T16:13:43.455Z,18.20
2023-09-30T16:14:41.087Z,18.09
2023-09-30T16:15:41.182Z,17.95
2023-09-30T16:16:41.044Z,17.99
2023-09-30T16:17:40.962Z,17.95
2023-09-30T16:18:40.945Z,17.95
2023-09-30T16:19:40.888Z,17.83
2023-09-30T16:20:40.864Z,17.62
2023-09-30T16:21:40.866Z,17.62
2023-09-30T16:22:40.783Z,17.63
2023-09-30T16:23:40.738Z,17.54
2023-09-30T16:24:40.723Z,17.45
2023-09-30T16:25:40.683Z,17.45
2023-09-30T16:26:40.650Z,17.28
2023-09-30T16:27:40.704Z,17.33
2023-09-30T16:28:40.660Z,17.28
2023-09-30T16:29:40.509Z,17.14
2023-09-30T16:30:40.562Z,17.17
2023-09-30T16:31:40.701Z,17.14
2023-09-30T16:32:41.676Z,17.14
2023-09-30T16:33:41.058Z,17.12
2023-09-30T16:34:41.110Z,16.98
2023-09-30T16:35:41.035Z,17.03
2023-09-30T16:36:41.153Z,17.05
2023-09-30T16:37:40.362Z,16.98
2023-09-30T16:38:42.694Z,17.02
2023-09-30T16:39:41.043Z,16.91
2023-09-30T16:40:40.306Z,16.90
2023-09-30T16:41:40.236Z,16.87
2023-09-30T16:42:42.644Z,16.75
2023-09-30T16:43:40.126Z,16.77
2023-09-30T16:44:40.030Z,16.81
2023-09-30T16:45:40.452Z,16.78
2023-09-30T16:46:40.053Z,16.62
2023-09-30T16:47:40.010Z,16.67
2023-09-30T16:48:40.612Z,16.72
2023-09-30T16:49:39.891Z,16.60
2023-09-30T16:50:39.863Z,16.55
2023-09-30T16:51:40.570Z,16.52
2023-09-30T16:52:39.829Z,16.54
2023-09-30T16:53:40.414Z,16.47
2023-09-30T16:54:39.695Z,16.52
2023-09-30T16:55:40.612Z,16.41
2023-09-30T16:56:40.635Z,16.42
2023-09-30T16:57:39.630Z,16.32
2023-09-30T16:58:39.444Z,16.26
2023-09-30T16:59:39.416Z,16.22
2023-09-30T17:00:39.485Z,16.26
2023-09-30T17:01:39.410Z,16.16
2023-09-30T17:02:39.321Z,16.11
2023-09-30T17:03:39.355Z,16.08
2023-09-30T17:04:39.256Z,16.01
2023-09-30T17:05:39.187Z,15.98
2023-09-30T17:06:39.182Z,15.89
2023-09-30T17:07:39.208Z,15.74
2023-09-30T17:08:39.083Z,15.78
2023-09-30T17:09:39.151Z,15.78
2023-09-30T17:10:39.000Z,15.66
2023-09-30T17:11:38.954Z,15.64
2023-09-30T17:12:38.951Z,15.52
2023-09-30T17:13:38.885Z,15.53
2023-09-30T17:14:38.911Z,15.52
2023-09-30T17:15:38.903Z,15.48
2023-09-30T17:16:38.778Z,15.48
2023-09-30T17:17:38.748Z,15.48
2023-09-30T17:18:38.799Z,15.44
2023-09-30T17:19:38.673Z,15.43
2023-09-30T17:20:39.437Z,15.40
2023-09-30T17:21:38.705Z,15.30
2023-09-30T17:22:38.520Z,15.22
2023-09-30T17:23:39.468Z,15.16
2023-09-30T17:24:38.458Z,15.19
2023-09-30T17:25:38.413Z,15.09
2023-09-30T17:26:38.367Z,15.03
2023-09-30T17:27:38.437Z,15.07
2023-09-30T17:28:38.307Z,14.98
2023-09-30T17:29:38.256Z,14.91
2023-09-30T17:30:42.011Z,14.94
2023-09-30T17:31:38.230Z,14.85
2023-09-30T17:32:38.243Z,14.87
2023-09-30T17:33:38.133Z,14.79
2023-09-30T17:34:38.060Z,14.75
2023-09-30T17:35:38.019Z,14.75
2023-09-30T17:36:38.011Z,14.72
2023-09-30T17:37:37.950Z,14.69
2023-09-30T17:38:37.915Z,14.61
2023-09-30T17:39:37.909Z,14.54
2023-09-30T17:40:37.840Z,14.53
2023-09-30T17:41:39.180Z,14.44
2023-09-30T17:42:37.764Z,14.48
2023-09-30T17:43:37.714Z,14.46
2023-09-30T17:44:37.700Z,14.44
2023-09-30T17:45:37.640Z,14.49
2023-09-30T17:46:37.672Z,14.42
2023-09-30T17:47:37.580Z,14.34
2023-09-30T17:48:37.564Z,14.44
2023-09-30T17:49:37.475Z,14.34
2023-09-30T17:50:37.474Z,14.34
2023-09-30T17:51:37.430Z,14.29
2023-09-30T17:52:37.380Z,14.26
2023-09-30T17:53:37.323Z,14.27
2023-09-30T17:54:37.289Z,14.31
2023-09-30T17:55:37.255Z,14.29
2023-09-30T17:56:37.253Z,14.31
2023-09-30T17:57:37.189Z,14.24
2023-09-30T17:58:37.153Z,14.30
2023-09-30T17:59:37.089Z,14.20
2023-09-30T18:00:37.074Z,14.17
2023-09-30T18:01:37.048Z,14.16
2023-09-30T18:02:40.256Z,14.08
2023-09-30T18:03:37.023Z,14.11
2023-09-30T18:04:36.959Z,14.08
2023-09-30T18:05:36.851Z,14.09
2023-09-30T18:06:36.835Z,14.12
2023-09-30T18:07:36.763Z,13.90
2023-09-30T18:08:36.765Z,14.01
2023-09-30T18:09:36.718Z,13.99
2023-09-30T18:10:36.683Z,13.88
2023-09-30T18:11:36.662Z,13.93
2023-09-30T18:12:36.645Z,13.98
2023-09-30T18:13:36.606Z,13.94
2023-09-30T18:14:36.565Z,13.87
2023-09-30T18:15:36.568Z,13.81
2023-09-30T18:16:36.576Z,13.96
2023-09-30T18:17:36.486Z,13.91
2023-09-30T18:18:36.526Z,13.88
2023-09-30T18:19:36.356Z,13.93
2023-09-30T18:20:36.372Z,13.84
2023-09-30T18:21:36.393Z,13.76
2023-09-30T18:22:36.228Z,13.80
2023-09-30T18:23:36.191Z,13.75
2023-09-30T18:24:36.193Z,13.62
2023-09-30T18:25:36.106Z,13.66
2023-09-30T18:26:36.068Z,13.72
2023-09-30T18:27:36.046Z,13.61
2023-09-30T18:28:35.996Z,13.66
2023-09-30T18:29:35.945Z,13.50
2023-09-30T18:30:36.014Z,13.57
2023-09-30T18:31:35.900Z,13.61
2023-09-30T18:32:35.873Z,13.62
2023-09-30T18:33:35.883Z,13.48
2023-09-30T18:34:35.761Z,13.55
2023-09-30T18:35:35.711Z,13.39
2023-09-30T18:36:35.693Z,13.47
2023-09-30T18:37:35.640Z,13.46
2023-09-30T18:38:35.655Z,13.31
2023-09-30T18:39:35.671Z,13.29
2023-09-30T18:40:35.514Z,13.32
2023-09-30T18:41:35.497Z,13.31
2023-09-30T18:42:35.527Z,13.32
2023-09-30T18:43:35.395Z,13.27
2023-09-30T18:44:35.365Z,13.28
2023-09-30T18:45:35.425Z,13.16
2023-09-30T18:46:35.356Z,13.16
2023-09-30T18:47:35.356Z,13.19
2023-09-30T18:48:35.239Z,13.16
2023-09-30T18:49:35.147Z,13.14
2023-09-30T18:50:36.008Z,13.21
2023-09-30T18:51:35.087Z,13.13
2023-09-30T18:52:35.052Z,13.10
2023-09-30T18:53:35.061Z,13.16
2023-09-30T18:54:34.963Z,13.16
2023-09-30T18:55:34.933Z,13.19
2023-09-30T18:56:34.948Z,13.13
2023-09-30T18:57:34.821Z,13.10
2023-09-30T18:58:34.877Z,13.16
2023-09-30T18:59:34.768Z,13.14
2023-09-30T19:00:34.725Z,13.04
2023-09-30T19:01:34.788Z,13.04
2023-09-30T19:02:34.680Z,13.07
2023-09-30T19:03:34.661Z,13.10
2023-09-30T19:04:34.683Z,13.12
2023-09-30T19:05:34.575Z,13.27
2023-09-30T19:06:34.506Z,13.12
2023-09-30T19:07:34.480Z,13.07
2023-09-30T19:08:34.438Z,13.09
2023-09-30T19:09:34.364Z,13.07
2023-09-30T19:10:34.388Z,13.12
2023-09-30T19:11:34.280Z,12.96
2023-09-30T19:12:34.248Z,13.03
2023-09-30T19:13:34.204Z,12.92
2023-09-30T19:14:34.168Z,12.94
2023-09-30T19:15:34.127Z,12.89
2023-09-30T19:16:34.222Z,12.95
2023-09-30T19:17:34.106Z,12.95
2023-09-30T19:18:34.004Z,12.91
2023-09-30T19:19:34.004Z,12.92
2023-09-30T19:20:33.932Z,12.91
2023-09-30T19:21:33.900Z,12.88
2023-09-30T19:22:33.882Z,12.87
2023-09-30T19:23:33.821Z,12.81
2023-09-30T19:24:33.771Z,12.81
2023-09-30T19:25:33.738Z,12.88
2023-09-30T19:26:33.766Z,12.91
2023-09-30T19:27:33.677Z,12.79
2023-09-30T19:28:33.600Z,12.73
2023-09-30T19:29:33.563Z,12.87
2023-09-30T19:30:33.550Z,12.79
2023-09-30T19:31:33.583Z,12.98
2023-09-30T19:32:33.458Z,12.89
2023-09-30T19:33:33.411Z,13.01
2023-09-30T19:34:33.379Z,13.07
2023-09-30T19:35:33.335Z,13.21
2023-09-30T19:36:33.313Z,13.24
2023-09-30T19:37:33.240Z,13.35
2023-09-30T19:38:33.231Z,13.32
2023-09-30T19:39:33.178Z,13.46
2023-09-30T19:40:33.133Z,13.50
2023-09-30T19:41:33.093Z,13.44
2023-09-30T19:42:33.057Z,13.48
2023-09-30T19:43:33.024Z,13.51
2023-09-30T19:44:32.992Z,13.51
2023-09-30T19:45:33.015Z,13.46
2023-09-30T19:46:32.953Z,13.47
2023-09-30T19:47:32.915Z,13.41
2023-09-30T19:48:32.820Z,13.41
2023-09-30T19:49:32.785Z,13.35
2023-09-30T19:50:33.187Z,13.28
2023-09-30T19:51:32.695Z,13.27
2023-09-30T19:52:32.711Z,13.21